Time;durP1;ratioP1;P1;durP2;ratioP2;P2;SDS_P1;SDS_P2;PMS_P1;PMS_P2;Temp;Humidity;BMP_temperature;BMP_pressure;BME280_temperature;BME280_humidity;BME280_pressure;Samples;Min_cycle;Max_cycle;Signal;HPM_P1;HPM_P2
2021/03/28 00:01:54;;;;;;;80.90;36.50;;;;;;;26.66;27.12;158163.22;1655277;87;21233;-79
2021/03/28 00:04:28;;;;;;;84.28;36.25;;;;;;;26.65;27.10;158160.56;1673446;84;21261;-79
2021/03/28 00:07:03;;;;;;;82.08;38.40;;;;;;;26.57;27.22;158139.31;1665108;85;21333;-79
2021/03/28 00:09:40;;;;;;;83.45;36.05;;;;;;;26.41;27.41;158094.13;1657325;86;21365;-79
2021/03/28 00:12:32;;;;;;;86.50;38.33;;;;;;;26.35;27.39;158079.45;1618039;87;21244;-79
2021/03/28 00:15:14;;;;;;;84.97;36.05;;;;;;;25.66;27.84;157894.81;1669878;85;21348;-79
2021/03/28 00:17:52;;;;;;;;;;;;;;;26.27;27.55;158058.22;1631386;87;21242;-79
2021/03/28 00:20:29;;;;;;;86.25;35.60;;;;;;;25.72;27.86;157910.72;1683363;85;20306;-79
2021/03/28 00:23:13;;;;;;;79.37;36.20;;;;;;;26.43;27.47;158100.80;1684384;83;21218;-76
2021/03/28 00:25:59;;;;;;;93.22;39.95;;;;;;;25.53;28.06;157860.28;1683800;83;21191;-78
2021/03/28 00:28:41;;;;;;;100.92;41.42;;;;;;;25.97;27.82;157977.19;1680472;84;21327;-77
2021/03/28 00:31:34;;;;;;;78.78;36.05;;;;;;;26.08;27.63;158007.75;1661198;85;21900;-79
2021/03/28 00:34:32;;;;;;;84.07;37.98;;;;;;;26.10;27.66;158011.72;1655003;86;21392;-78
2021/03/28 00:37:15;;;;;;;95.50;40.70;;;;;;;26.15;27.61;158025.03;1653727;85;21393;-79
2021/03/28 00:39:57;;;;;;;97.57;41.92;;;;;;;26.26;27.51;158054.25;1629132;86;21884;-78
2021/03/28 00:42:50;;;;;;;103.38;41.40;;;;;;;26.18;27.60;158032.95;1654766;86;21209;-79
2021/03/28 00:45:43;;;;;;;98.30;41.20;;;;;;;25.82;27.89;157938.69;1627695;87;21356;-79
2021/03/28 00:48:25;;;;;;;86.57;36.58;;;;;;;25.32;28.21;157804.55;1654653;87;21379;-79
2021/03/28 00:51:20;;;;;;;80.77;34.25;;;;;;;25.71;28.02;157908.06;1603429;88;21591;-79
2021/03/28 00:54:19;;;;;;;83.62;37.65;;;;;;;25.61;28.04;157882.88;1629244;86;21230;-79
2021/03/28 00:56:57;;;;;;;80.15;36.35;;;;;;;25.81;27.83;157936.03;1641722;87;21217;-80
2021/03/28 00:59:37;;;;;;;89.32;36.10;;;;;;;26.09;27.59;158009.06;1699002;83;21332;-80
2021/03/28 01:02:21;;;;;;;101.42;41.10;;;;;;;26.06;27.55;158002.44;1668246;84;21284;-79
2021/03/28 01:05:09;;;;;;;101.20;40.98;;;;;;;26.10;27.44;158013.03;1664770;84;21238;-79
2021/03/28 01:08:01;;;;;;;107.83;39.53;;;;;;;25.73;27.52;157914.75;1669478;84;21235;-79
2021/03/28 01:10:58;;;;;;;82.60;37.08;;;;;;;25.63;27.65;157886.83;1685969;84;21252;-80
2021/03/28 01:14:16;;;;;;;107.65;41.80;;;;;;;25.69;27.58;157904.09;1646204;84;21358;-77
2021/03/28 01:17:29;;;;;;;149.60;48.95;;;;;;;25.05;28.12;157731.50;1651499;86;21208;-79
2021/03/28 01:20:24;;;;;;;219.20;65.55;;;;;;;25.47;27.82;157844.33;1658055;86;21338;-79
2021/03/28 01:23:22;;;;;;;236.00;72.27;;;;;;;25.28;27.90;157793.91;1657593;85;21216;-80
2021/03/28 01:26:28;;;;;;;121.97;45.23;;;;;;;24.92;28.35;157698.28;1656743;86;21417;-77
2021/03/28 01:29:05;;;;;;;116.25;44.65;;;;;;;24.79;28.66;157663.78;1666172;86;21702;-79
2021/03/28 01:31:52;;;;;;;131.20;49.35;;;;;;;24.46;29.03;157573.56;1573589;88;21362;-79
2021/03/28 01:34:30;;;;;;;132.78;49.40;;;;;;;24.58;28.97;157605.41;1664598;84;21333;-78
2021/03/28 01:37:13;;;;;;;124.95;47.15;;;;;;;24.60;29.09;157610.72;1641942;86;21312;-79
2021/03/28 01:40:12;;;;;;;102.47;40.30;;;;;;;24.61;29.17;157613.38;1660562;84;21365;-77
2021/03/28 01:43:13;;;;;;;109.65;41.65;;;;;;;24.90;28.90;157691.67;1663186;86;21190;-78
2021/03/28 01:46:12;;;;;;;115.10;44.30;;;;;;;23.93;29.61;157432.95;1657267;84;21359;-78
2021/03/28 01:48:58;;;;;;;122.70;47.20;;;;;;;23.84;29.86;157409.09;1632569;86;21206;-79
2021/03/28 01:51:52;;;;;;;126.78;46.83;;;;;;;23.83;29.83;157406.44;1654093;85;21199;-81
2021/03/28 01:54:59;;;;;;;118.75;45.33;;;;;;;23.87;29.75;157417.02;1659543;85;21318;-78
2021/03/28 01:58:05;;;;;;;119.97;47.73;;;;;;;23.82;29.75;157403.78;1644121;84;21200;-79
2021/03/28 02:01:09;;;;;;;123.95;45.90;;;;;;;23.71;29.78;157374.56;1648635;86;21237;-80
2021/03/28 02:04:04;;;;;;;132.37;47.62;;;;;;;23.67;29.62;157362.64;1660945;85;21191;-79
2021/03/28 02:06:51;;;;;;;118.17;47.23;;;;;;;23.59;29.68;157342.75;1631087;86;21262;-79
2021/03/28 02:09:43;;;;;;;129.65;46.05;;;;;;;23.58;29.70;157338.73;1659365;86;21196;-78
2021/03/28 02:12:36;;;;;;;136.25;48.80;;;;;;;23.58;29.67;157338.73;1656850;86;21343;-78
2021/03/28 02:15:46;;;;;;;131.72;47.00;;;;;;;23.45;29.65;157305.63;1648769;85;21381;-77
2021/03/28 02:18:51;;;;;;;151.02;52.65;;;;;;;23.51;29.67;157320.20;1664892;86;21214;-78
2021/03/28 02:21:48;;;;;;;116.55;44.88;;;;;;;23.31;29.79;157267.20;1675199;84;21233;-78
2021/03/28 02:24:40;;;;;;;124.38;45.38;;;;;;;23.17;30.10;157230.08;1666503;84;21202;-79
2021/03/28 02:27:29;;;;;;;114.05;44.03;;;;;;;23.07;30.19;157203.59;1659147;84;21341;-78
2021/03/28 02:30:15;;;;;;;93.35;42.60;;;;;;;23.00;30.42;157186.31;1679662;84;21317;-78
2021/03/28 02:33:24;;;;;;;106.15;42.43;;;;;;;22.91;30.72;157162.47;1682939;84;21342;-78
2021/03/28 02:36:26;;;;;;;99.25;42.35;;;;;;;23.08;30.57;157206.25;1690169;83;21346;-78
2021/03/28 02:39:30;;;;;;;110.75;40.60;;;;;;;22.69;30.95;157101.47;1675542;83;21888;-78
2021/03/28 02:42:26;;;;;;;91.72;38.30;;;;;;;22.61;30.97;157081.66;1682850;84;21267;-78
2021/03/28 02:45:06;;;;;;;99.07;41.75;;;;;;;22.55;31.28;157064.44;1677283;83;21202;-78
2021/03/28 02:48:11;;;;;;;101.27;42.33;;;;;;;22.58;31.15;157072.34;1697019;83;21211;-79
2021/03/28 02:51:25;;;;;;;99.65;39.53;;;;;;;22.52;31.16;157057.77;1661911;84;21337;-77
2021/03/28 02:54:12;;;;;;;98.80;39.88;;;;;;;22.57;31.18;157071.03;1654322;85;21337;-78
2021/03/28 02:57:20;;;;;;;95.47;43.45;;;;;;;22.59;31.01;157075.00;1687598;83;21182;-79
2021/03/28 03:00:28;;;;;;;90.62;38.28;;;;;;;22.57;30.96;157069.73;1681942;84;21382;-79
2021/03/28 03:03:17;;;;;;;76.90;36.10;;;;;;;22.48;30.99;157045.86;1690649;84;21195;-79
2021/03/28 03:06:41;;;;;;;82.72;34.95;;;;;;;23.00;30.93;157186.31;1691649;83;21682;-78
2021/03/28 03:10:07;;;;;;;84.80;36.05;;;;;;;23.04;30.85;157195.56;1681046;84;21373;-78
2021/03/28 03:13:13;;;;;;;76.80;34.92;;;;;;;22.98;30.78;157181.00;1685207;84;21218;-79
2021/03/28 03:16:00;;;;;;;79.87;33.75;;;;;;;23.12;30.49;157216.81;1662139;84;21192;-79
2021/03/28 03:19:14;;;;;;;71.02;30.75;;;;;;;23.13;30.49;157219.47;1669463;85;21207;-78
2021/03/28 03:22:11;;;;;;;73.97;31.65;;;;;;;23.19;30.51;157235.39;1671111;85;21426;-77
2021/03/28 03:25:12;;;;;;;76.07;32.28;;;;;;;23.27;30.40;157256.58;1627039;87;21220;-79
2021/03/28 03:27:54;;;;;;;;;;;;;;;23.25;30.29;157251.27;1624869;88;21214;-78
2021/03/28 03:30:40;;;;;;;66.53;28.77;;;;;;;23.24;30.34;157248.61;1671425;84;20189;-79
2021/03/28 03:33:40;;;;;;;76.02;34.23;;;;;;;23.19;30.35;157236.69;1684442;84;21273;-79
2021/03/28 03:36:45;;;;;;;70.70;30.92;;;;;;;23.12;30.32;157218.16;1661855;85;21398;-78
2021/03/28 03:39:29;;;;;;;69.10;30.57;;;;;;;23.31;30.08;157268.50;1683017;85;21247;-79
2021/03/28 03:42:31;;;;;;;66.53;31.75;;;;;;;23.27;30.03;157256.58;1670044;85;21897;-78
2021/03/28 03:45:34;;;;;;;69.55;30.20;;;;;;;23.20;30.02;157238.05;1672426;84;21365;-78
2021/03/28 03:48:14;;;;;;;69.80;32.33;;;;;;;23.23;30.00;157245.95;1676693;84;21247;-78
2021/03/28 03:51:22;;;;;;;77.00;31.80;;;;;;;23.15;29.99;157224.78;1674521;84;21361;-79
2021/03/28 03:54:17;;;;;;;73.00;32.98;;;;;;;23.04;30.07;157196.88;1684572;84;21736;-79
2021/03/28 03:57:27;;;;;;;69.62;31.60;;;;;;;22.89;30.23;157155.81;1662847;84;21278;-77
2021/03/28 04:00:25;;;;;;;88.03;34.53;;;;;;;22.90;30.26;157158.47;1681722;85;21320;-78
2021/03/28 04:03:25;;;;;;;88.75;34.53;;;;;;;22.96;30.07;157175.69;1689091;84;21202;-79
2021/03/28 04:06:29;;;;;;;115.72;41.83;;;;;;;22.91;30.20;157162.47;1685400;85;21320;-79
2021/03/28 04:09:31;;;;;;;82.40;36.38;;;;;;;22.49;30.73;157049.86;1664387;84;21730;-79
2021/03/28 04:12:18;;;;;;;75.92;32.28;;;;;;;22.43;31.01;157032.64;1681996;83;21860;-78
2021/03/28 04:15:17;;;;;;;86.40;36.13;;;;;;;22.41;31.20;157027.34;1675561;84;21314;-79
2021/03/28 04:18:08;;;;;;;92.42;35.90;;;;;;;22.42;31.15;157031.28;1697061;83;21337;-78
2021/03/28 04:20:53;;;;;;;77.70;34.03;;;;;;;22.37;31.22;157018.08;1681005;84;21380;-80
2021/03/28 04:23:41;;;;;;;74.47;33.73;;;;;;;22.35;31.31;157011.42;1675981;84;21738;-79
2021/03/28 04:26:40;;;;;;;80.70;33.92;;;;;;;22.40;31.31;157024.69;1680059;84;21325;-80
2021/03/28 04:29:15;;;;;;;67.65;32.30;;;;;;;22.38;31.41;157020.72;1685362;84;21364;-79
2021/03/28 04:32:13;;;;;;;76.33;34.90;;;;;;;22.35;31.48;157011.42;1701434;83;21210;-79
2021/03/28 04:35:32;;;;;;;72.58;33.63;;;;;;;22.44;31.46;157035.30;1670880;83;21328;-79
2021/03/28 04:38:40;;;;;;;78.62;31.52;;;;;;;22.48;31.46;157047.22;1715291;82;22191;-79
2021/03/28 04:41:53;;;;;;;68.52;31.12;;;;;;;22.50;31.49;157051.16;1689611;83;21349;-81
2021/03/28 04:45:24;;;;;;;80.15;32.08;;;;;;;22.55;31.56;157065.73;1707066;82;21237;-79
2021/03/28 04:48:05;;;;;;;69.37;31.57;;;;;;;22.76;31.50;157121.36;1700615;84;21903;-79
2021/03/28 04:51:02;;;;;;;63.13;30.27;;;;;;;22.89;31.57;157157.16;1685959;84;21333;-78
2021/03/28 04:53:49;;;;;;;61.58;28.70;;;;;;;22.99;31.61;157183.66;1664133;85;21214;-76
2021/03/28 04:56:49;;;;;;;68.83;32.05;;;;;;;23.09;31.58;157208.84;1647836;86;21856;-76
2021/03/28 04:59:51;;;;;;;60.73;29.35;;;;;;;23.16;31.62;157227.42;1667158;86;21190;-75
2021/03/28 05:03:06;;;;;;;66.07;28.92;;;;;;;23.20;31.62;157238.05;1677747;85;21381;-75
2021/03/28 05:06:06;;;;;;;63.05;29.40;;;;;;;23.21;31.73;157240.66;1658247;84;21258;-77
2021/03/28 05:09:00;;;;;;;66.22;30.45;;;;;;;23.31;31.64;157268.50;1607119;87;21840;-78
2021/03/28 05:11:55;;;;;;;59.53;28.70;;;;;;;23.38;31.56;157285.73;1629916;87;21265;-76
2021/03/28 05:14:39;;;;;;;76.90;31.65;;;;;;;23.41;31.58;157295.00;1628261;87;21265;-78
2021/03/28 05:17:49;;;;;;;65.83;29.82;;;;;;;23.51;31.54;157321.50;1636282;85;21258;-78
2021/03/28 05:20:43;;;;;;;57.05;26.52;;;;;;;23.53;31.55;157326.81;1630189;86;21769;-77
2021/03/28 05:23:30;;;;;;;63.60;28.10;;;;;;;23.72;31.22;157377.22;1629326;87;21255;-77
2021/03/28 05:26:36;;;;;;;53.85;27.10;;;;;;;23.82;31.04;157403.78;1622553;87;22493;-77
2021/03/28 05:29:25;;;;;;;60.08;28.20;;;;;;;23.91;30.95;157427.64;1612684;87;21226;-77
2021/03/28 05:32:36;;;;;;;53.75;24.47;;;;;;;24.01;30.92;157455.52;1606620;85;21206;-77
2021/03/28 05:35:45;;;;;;;57.40;24.75;;;;;;;24.12;30.95;157484.69;1622058;87;21210;-77
2021/03/28 05:38:41;;;;;;;52.23;24.37;;;;;;;24.16;30.91;157493.95;1623032;85;21227;-76
2021/03/28 05:41:29;;;;;;;51.75;24.45;;;;;;;24.37;30.64;157550.95;1565299;90;21768;-77
2021/03/28 05:44:34;;;;;;;57.50;26.05;;;;;;;24.31;30.75;157535.06;1565586;91;21231;-76
2021/03/28 05:47:25;;;;;;;49.93;24.92;;;;;;;24.42;30.75;157562.94;1595701;86;21910;-77
2021/03/28 05:50:19;;;;;;;53.90;27.17;;;;;;;24.54;30.70;157594.78;1612340;86;21864;-77
2021/03/28 05:53:14;;;;;;;48.87;23.90;;;;;;;24.56;30.76;157600.09;1576608;87;21219;-77
2021/03/28 05:56:09;;;;;;;55.50;25.85;;;;;;;24.63;30.65;157618.69;1626381;86;21290;-77
2021/03/28 05:59:20;;;;;;;51.60;26.12;;;;;;;24.69;30.62;157635.94;1607828;86;21392;-77
2021/03/28 06:02:41;;;;;;;52.75;25.52;;;;;;;24.72;30.75;157643.88;1585301;88;21253;-77
2021/03/28 06:05:43;;;;;;;50.60;24.85;;;;;;;24.87;30.74;157683.69;1631697;86;21245;-77
2021/03/28 06:08:49;;;;;;;49.40;23.98;;;;;;;25.07;30.76;157738.11;1578388;88;21380;-77
2021/03/28 06:11:54;;;;;;;45.67;22.62;;;;;;;25.22;30.85;157776.64;1607423;86;21317;-76
2021/03/28 06:15:11;;;;;;;40.90;21.12;;;;;;;25.30;30.59;157799.22;1608332;86;21265;-76
2021/03/28 06:18:27;;;;;;;34.83;19.50;;;;;;;25.49;30.14;157849.64;1610376;86;21241;-79
2021/03/28 06:21:26;;;;;;;41.58;19.85;;;;;;;25.62;29.58;157884.17;1608896;86;21214;-79
2021/03/28 06:24:33;;;;;;;37.13;19.17;;;;;;;25.74;29.14;157917.41;1619670;86;21300;-80
2021/03/28 06:27:35;;;;;;;35.50;18.85;;;;;;;25.82;29.43;157937.33;1630771;85;21341;-78
2021/03/28 06:30:37;;;;;;;37.48;18.77;;;;;;;26.03;28.93;157993.16;1628564;85;21206;-78
2021/03/28 06:33:29;;;;;;;35.60;18.52;;;;;;;26.15;29.02;158025.03;1629068;85;21239;-83
2021/03/28 06:36:42;;;;;;;33.13;18.35;;;;;;;26.19;29.06;158035.63;1627392;85;21235;-76
2021/03/28 06:39:47;;;;;;;39.83;20.02;;;;;;;26.36;28.93;158080.81;1628844;85;21303;-80
2021/03/28 06:42:46;;;;;;;37.75;18.05;;;;;;;26.46;29.08;158108.73;1624747;86;21864;-78
2021/03/28 06:45:34;;;;;;;38.08;18.35;;;;;;;26.67;28.84;158165.89;1594734;87;21293;-73
2021/03/28 06:48:45;;;;;;;43.05;19.05;;;;;;;26.75;28.83;158187.12;1598873;86;21364;-78
2021/03/28 06:51:46;;;;;;;;;;;;;;;26.91;28.73;158228.33;1606569;86;21447;-78
2021/03/28 06:54:39;;;;;;;31.57;16.27;;;;;;;27.05;28.25;158266.95;1576244;89;20255;-76
2021/03/28 06:57:38;;;;;;;33.58;16.27;;;;;;;27.55;27.75;158399.87;1629288;85;21257;-77
2021/03/28 07:00:46;;;;;;;34.73;17.32;;;;;;;27.41;28.01;158361.33;1623573;85;21336;-77
2021/03/28 07:04:03;;;;;;;33.28;16.32;;;;;;;27.35;28.08;158346.70;1623093;85;21265;-77
2021/03/28 07:07:13;;;;;;;32.15;17.30;;;;;;;27.62;28.11;158418.53;1610534;86;21790;-77
2021/03/28 07:10:29;;;;;;;32.28;15.85;;;;;;;27.79;27.49;158465.12;1633468;84;21802;-79
2021/03/28 07:13:40;;;;;;;31.57;15.90;;;;;;;28.01;27.34;158523.64;1633630;85;21823;-79
2021/03/28 07:16:44;;;;;;;42.03;17.02;;;;;;;28.42;27.22;158631.45;1623718;85;21297;-77
2021/03/28 07:19:28;;;;;;;30.92;16.15;;;;;;;28.60;27.19;158680.69;1610684;86;21292;-75
2021/03/28 07:22:34;;;;;;;32.73;16.45;;;;;;;28.95;26.74;158773.92;1640544;85;21276;-80
2021/03/28 07:25:39;;;;;;;26.02;15.13;;;;;;;29.13;26.29;158823.17;1649080;84;21210;-73
2021/03/28 07:28:42;;;;;;;32.58;16.23;;;;;;;29.24;26.26;158851.09;1676157;83;21254;-75
2021/03/28 07:31:44;;;;;;;27.48;14.35;;;;;;;29.51;25.99;158924.44;1653073;83;21222;-75
2021/03/28 07:34:55;;;;;;;25.75;15.40;;;;;;;29.70;25.84;158975.03;1678503;83;21235;-77
2021/03/28 07:38:06;;;;;;;33.30;14.90;;;;;;;29.78;25.84;158997.69;1663751;83;21219;-85
2021/03/28 07:41:12;;;;;;;25.35;14.00;;;;;;;29.88;25.69;159022.95;1673593;83;21979;-83
2021/03/28 07:44:40;;;;;;;28.77;14.03;;;;;;;30.12;25.52;159088.31;1675136;83;21198;-85
2021/03/28 07:47:42;;;;;;;26.57;14.07;;;;;;;30.24;25.22;159118.94;1675273;83;21298;-81
2021/03/28 07:50:32;;;;;;;30.68;14.87;;;;;;;30.34;25.32;159148.25;1676061;83;21289;-78
2021/03/28 07:53:47;;;;;;;26.80;13.80;;;;;;;30.52;25.47;159196.30;1676995;83;21332;-83
2021/03/28 07:56:46;;;;;;;29.55;15.30;;;;;;;30.65;25.01;159230.95;1678750;84;21186;-75
2021/03/28 07:59:35;;;;;;;28.62;15.13;;;;;;;30.74;25.00;159254.94;1681405;83;21258;-80
2021/03/28 08:02:32;;;;;;;24.23;12.73;;;;;;;30.95;24.67;159310.91;1674516;84;21252;-84
2021/03/28 08:05:44;;;;;;;27.27;12.45;;;;;;;31.04;24.34;159334.95;1660774;83;21257;-78
2021/03/28 08:08:59;;;;;;;27.32;12.53;;;;;;;31.17;24.35;159369.62;1689070;83;21265;-78
2021/03/28 08:11:57;;;;;;;25.88;12.43;;;;;;;31.14;24.35;159360.30;1613257;88;21765;-80
2021/03/28 08:15:14;;;;;;;22.37;11.85;;;;;;;31.40;23.77;159430.97;1652754;84;21187;-81
2021/03/28 08:18:28;;;;;;;23.25;11.43;;;;;;;31.49;23.75;159456.31;1620402;87;21278;-78
2021/03/28 08:21:45;;;;;;;18.48;9.55;;;;;;;31.66;23.83;159500.37;1645616;85;21278;-76
2021/03/28 08:24:40;;;;;;;21.85;11.30;;;;;;;31.74;22.78;159521.70;1635010;85;21284;-78
2021/03/28 08:27:37;;;;;;;18.50;9.65;;;;;;;31.72;22.92;159517.72;1644115;84;21250;-80
2021/03/28 08:30:35;;;;;;;20.37;9.90;;;;;;;31.77;22.51;159529.72;1641717;85;21238;-78
2021/03/28 08:33:21;;;;;;;18.98;10.18;;;;;;;31.86;22.61;159553.72;1644845;85;21388;-77
2021/03/28 08:36:32;;;;;;;21.73;10.60;;;;;;;31.99;22.47;159588.41;1625827;85;21227;-79
2021/03/28 08:39:14;;;;;;;;;;;;;;;32.12;22.36;159624.47;1650317;85;21250;-78
2021/03/28 08:41:57;;;;;;;19.25;9.48;;;;;;;32.30;22.28;159672.53;1646502;84;20298;-79
2021/03/28 08:45:06;;;;;;;17.10;9.05;;;;;;;33.08;21.74;159882.16;1639658;85;21218;-76
2021/03/28 08:48:03;;;;;;;19.37;9.90;;;;;;;34.74;21.04;160328.53;1645556;85;21239;-80
2021/03/28 08:50:55;;;;;;;17.00;9.25;;;;;;;36.43;20.30;160782.09;1639251;86;21258;-80
2021/03/28 08:53:45;;;;;;;17.62;8.70;;;;;;;37.63;19.29;161106.25;1643298;85;21780;-84
2021/03/28 08:57:04;;;;;;;18.42;9.50;;;;;;;38.24;19.16;161269.80;1641473;84;21241;-79
2021/03/28 09:00:00;;;;;;;15.70;8.78;;;;;;;39.13;18.04;161509.77;1641767;85;21202;-80
2021/03/28 09:03:00;;;;;;;16.97;8.30;;;;;;;39.57;17.67;161627.84;1638970;84;21234;-77
2021/03/28 09:05:55;;;;;;;17.30;8.90;;;;;;;40.33;17.38;161833.13;1644597;85;21404;-79
2021/03/28 09:08:36;;;;;;;16.45;9.30;;;;;;;41.32;16.91;162100.34;1645215;85;21638;-78
2021/03/28 09:11:30;;;;;;;16.48;10.00;;;;;;;41.44;16.72;162133.88;1646235;85;21368;-82
2021/03/28 09:14:14;;;;;;;17.10;9.28;;;;;;;41.53;16.71;162156.72;1644850;85;21256;-79
2021/03/28 09:17:18;;;;;;;17.15;8.85;;;;;;;41.72;16.53;162207.78;1639550;84;21318;-85
2021/03/28 09:20:29;;;;;;;17.95;8.68;;;;;;;41.85;16.42;162242.69;1639848;85;21218;-85
2021/03/28 09:23:51;;;;;;;16.85;8.83;;;;;;;41.22;16.22;162073.45;1644392;85;22195;-87
2021/03/28 09:26:32;;;;;;;16.62;9.10;;;;;;;41.69;16.19;162199.70;1589148;88;21277;-87
2021/03/28 09:29:47;;;;;;;13.62;9.95;;;;;;;39.95;16.78;161732.47;1581890;87;21253;-85
2021/03/28 09:33:07;;;;;;;15.08;8.78;;;;;;;40.06;17.01;161760.66;1589941;86;21446;-83
2021/03/28 09:36:15;;;;;;;15.55;10.72;;;;;;;40.72;16.41;161939.16;1588551;88;21253;-84
2021/03/28 09:39:20;;;;;;;17.67;9.95;;;;;;;41.48;16.13;162143.27;1581520;87;21284;-84
2021/03/28 09:42:36;;;;;;;13.95;9.55;;;;;;;42.02;16.01;162289.75;1579283;88;22135;-82
2021/03/28 09:45:42;;;;;;;20.62;9.63;;;;;;;42.50;15.71;162418.75;1606676;86;21245;-83
2021/03/28 09:48:37;;;;;;;14.13;10.08;;;;;;;42.72;15.67;162477.86;1578644;88;22417;-82
2021/03/28 09:52:01;;;;;;;16.42;9.60;;;;;;;43.42;15.59;162668.80;1606067;86;21202;-83
2021/03/28 09:54:58;;;;;;;15.88;10.72;;;;;;;44.40;15.09;162933.83;1593107;86;21285;-82
2021/03/28 09:58:24;;;;;;;15.35;8.93;;;;;;;45.01;14.79;163098.06;1606053;87;21207;-82
2021/03/28 10:01:31;;;;;;;16.90;9.73;;;;;;;46.33;14.63;163456.19;1593389;86;21252;-83
2021/03/28 10:04:28;;;;;;;13.62;9.45;;;;;;;46.96;14.23;163626.00;1583480;88;21296;-84
2021/03/28 10:07:02;;;;;;;14.55;9.05;;;;;;;47.46;14.05;163760.72;1573503;87;21301;-81
2021/03/28 10:10:05;;;;;;;13.08;9.23;;;;;;;47.35;13.79;163731.08;1708272;81;21428;-81
2021/03/28 10:12:55;;;;;;;14.35;9.35;;;;;;;47.74;13.94;163837.61;1704356;81;21212;-84
2021/03/28 10:15:27;;;;;;;15.98;9.60;;;;;;;47.85;13.64;163868.58;1724831;80;22538;-83
2021/03/28 10:18:21;;;;;;;13.60;10.00;;;;;;;47.66;13.85;163814.69;1725317;80;21366;-85
2021/03/28 10:21:17;;;;;;;12.00;9.60;;;;;;;47.64;13.76;163810.63;1721058;80;21255;-86
2021/03/28 10:24:16;;;;;;;13.30;8.78;;;;;;;47.41;13.57;163748.59;1712887;81;21728;-86
2021/03/28 10:27:09;;;;;;;13.85;9.00;;;;;;;47.33;13.67;163725.73;1712537;81;21200;-84
2021/03/28 10:30:24;;;;;;;13.45;9.75;;;;;;;47.83;13.65;163863.19;1669972;81;21220;-85
2021/03/28 10:33:24;;;;;;;10.80;8.98;;;;;;;48.71;13.26;164100.58;1678675;82;21809;-81
2021/03/28 10:36:11;;;;;;;14.65;9.50;;;;;;;48.69;13.04;164095.19;1696187;82;21381;-80
2021/03/28 10:39:14;;;;;;;13.72;9.83;;;;;;;47.50;13.46;163772.89;1712865;81;21187;-82
2021/03/28 10:42:21;;;;;;;12.90;8.93;;;;;;;47.22;13.75;163696.09;1712836;81;21246;-82
2021/03/28 10:45:07;;;;;;;11.93;8.20;;;;;;;46.91;13.56;163612.50;1712893;81;21463;-82
2021/03/28 10:48:01;;;;;;;9.65;8.15;;;;;;;46.69;13.96;163551.88;1712536;82;21113;-81
2021/03/28 10:50:50;;;;;;;12.47;8.20;;;;;;;46.94;13.79;163621.92;1712641;81;21842;-82
2021/03/28 10:54:06;;;;;;;12.45;8.45;;;;;;;46.97;13.82;163630.02;1704642;82;21865;-82
2021/03/28 10:57:35;;;;;;;12.45;8.45;;;;;;;46.67;13.76;163547.80;1702762;82;21148;-82
2021/03/28 11:00:58;;;;;;;13.55;8.90;;;;;;;46.01;13.86;163369.98;1714584;81;21378;-77
2021/03/28 11:04:09;;;;;;;12.18;8.83;;;;;;;46.07;14.11;163384.80;1712904;82;21212;-80
2021/03/28 11:07:25;;;;;;;13.30;9.55;;;;;;;45.87;14.11;163330.97;1643781;85;21475;-82
2021/03/28 11:10:36;;;;;;;15.98;9.50;;;;;;;46.51;14.01;163504.75;1738886;79;21267;-81
2021/03/28 11:13:15;;;;;;;;;;;;;;;46.89;13.96;163607.11;1764118;79;21228;-82
2021/03/28 11:16:20;;;;;;;13.88;9.85;;;;;;;46.50;13.94;163502.05;1756938;79;20292;-83
2021/03/28 11:19:50;;;;;;;15.30;10.58;;;;;;;45.97;14.34;163359.20;1755372;79;21295;-83
2021/03/28 11:23:05;;;;;;;12.68;8.75;;;;;;;45.60;14.36;163258.22;1686928;82;21707;-84
2021/03/28 11:26:17;;;;;;;13.00;9.53;;;;;;;45.41;14.41;163207.09;1696403;82;21292;-83
2021/03/28 11:29:04;;;;;;;13.75;9.35;;;;;;;45.71;14.48;163287.83;1696639;82;21449;-80
2021/03/28 11:31:42;;;;;;;14.13;8.73;;;;;;;46.25;14.37;163434.66;1748154;79;21759;-82
2021/03/28 11:34:28;;;;;;;10.35;7.92;;;;;;;46.28;14.22;163441.38;1747237;79;21166;-82
2021/03/28 11:37:05;;;;;;;12.10;8.53;;;;;;;45.86;14.23;163329.59;1746197;81;21336;-81
2021/03/28 11:39:37;;;;;;;14.35;8.93;;;;;;;45.30;14.50;163176.06;1752497;79;21390;-80
2021/03/28 11:42:16;;;;;;;11.03;8.03;;;;;;;45.75;14.27;163297.28;1721957;81;21228;-83
2021/03/28 11:45:06;;;;;;;10.60;7.70;;;;;;;46.45;14.02;163488.50;1745255;79;21292;-81
2021/03/28 11:47:56;;;;;;;13.80;8.00;;;;;;;46.60;13.70;163527.59;1736458;81;21814;-80
2021/03/28 11:50:41;;;;;;;19.48;12.50;;;;;;;46.10;14.05;163394.27;1743770;79;21184;-82
2021/03/28 11:53:28;;;;;;;12.98;8.23;;;;;;;46.02;14.01;163372.69;1747239;79;21233;-81
2021/03/28 11:56:03;;;;;;;11.48;8.30;;;;;;;46.32;14.08;163453.48;1746844;79;21343;-85
2021/03/28 11:58:45;;;;;;;13.10;7.83;;;;;;;46.99;13.78;163634.09;1752134;80;21316;-88
2021/03/28 12:01:36;;;;;;;;;;;;;;;47.12;13.86;163670.44;1751029;80;22296;-89
2021/03/28 12:05:02;;;;;;;13.03;7.87;;;;;;;47.65;13.53;163813.31;1747385;79;20261;-84
2021/03/28 12:07:46;;;;;;;13.32;10.30;;;;;;;47.93;13.50;163888.84;1575895;88;21403;-87
2021/03/28 12:10:34;;;;;;;9.48;6.65;;;;;;;47.56;13.35;163787.75;1626871;86;21274;-85
2021/03/28 12:13:24;;;;;;;11.55;8.48;;;;;;;46.80;13.47;163584.19;1636980;86;22214;-86
2021/03/28 12:16:04;;;;;;;13.10;8.58;;;;;;;46.27;13.94;163438.69;1650600;84;21306;-82
2021/03/28 12:18:44;;;;;;;14.55;8.88;;;;;;;46.11;13.94;163395.64;1650773;84;21287;-85
2021/03/28 12:21:28;;;;;;;12.33;8.70;;;;;;;45.65;14.14;163271.70;1651961;84;21238;-85
2021/03/28 12:24:09;;;;;;;13.93;9.33;;;;;;;45.92;14.02;163345.77;1654877;83;21848;-84
2021/03/28 12:26:47;;;;;;;13.28;8.75;;;;;;;45.81;14.11;163313.47;1661133;84;21258;-87
2021/03/28 12:29:34;;;;;;;14.63;9.28;;;;;;;46.30;13.77;163448.09;1650529;84;21223;-90
2021/03/28 12:32:52;;;;;;;15.18;9.10;;;;;;;45.57;13.97;163250.13;1674678;83;21425;-89
2021/03/28 12:35:49;;;;;;;16.15;9.73;;;;;;;44.92;14.20;163075.13;1659252;83;21865;-86
2021/03/28 12:38:33;;;;;;;13.72;9.25;;;;;;;44.03;14.64;162832.94;1651465;84;21448;-88
2021/03/28 12:41:33;;;;;;;12.00;8.98;;;;;;;43.61;14.80;162719.91;1651050;84;21310;-83
2021/03/28 12:44:19;;;;;;;11.80;8.60;;;;;;;42.95;14.92;162541.05;1650884;84;21457;-80
2021/03/28 12:47:15;;;;;;;14.95;8.08;;;;;;;41.90;15.37;162258.78;1651832;84;21251;-81
2021/03/28 12:49:57;;;;;;;13.48;8.68;;;;;;;41.18;15.48;162064.06;1639260;83;21793;-82
2021/03/28 12:52:40;;;;;;;18.05;10.65;;;;;;;40.31;16.21;161829.06;1661484;83;21982;-83
2021/03/28 12:55:40;;;;;;;16.52;10.30;;;;;;;39.76;16.45;161680.09;1651681;83;21289;-74
2021/03/28 12:58:23;;;;;;;17.42;11.53;;;;;;;39.44;16.74;161592.92;1652511;83;21220;-73
2021/03/28 13:01:06;;;;;;;14.78;9.55;;;;;;;39.24;17.03;161540.63;1649878;84;21236;-82
2021/03/28 13:03:43;;;;;;;14.43;8.15;;;;;;;39.17;16.97;161521.88;1589952;87;21255;-83
2021/03/28 13:06:49;;;;;;;16.02;10.50;;;;;;;39.16;17.08;161517.81;1618822;85;21367;-87
2021/03/28 13:09:36;;;;;;;11.08;8.20;;;;;;;38.98;17.13;161470.84;1703453;81;21271;-83
2021/03/28 13:12:17;;;;;;;12.85;7.28;;;;;;;38.83;17.00;161427.98;1704664;81;21711;-82
2021/03/28 13:14:51;;;;;;;13.00;8.38;;;;;;;38.47;16.96;161332.75;1704211;81;21215;-84
2021/03/28 13:17:33;;;;;;;12.10;6.62;;;;;;;38.37;17.00;161305.97;1704961;81;21357;-80
2021/03/28 13:20:23;;;;;;;12.65;7.53;;;;;;;37.81;17.25;161153.19;1702323;81;21173;-81
2021/03/28 13:23:18;;;;;;;10.15;6.17;;;;;;;37.37;17.31;161036.61;1702309;81;21265;-82
2021/03/28 13:26:12;;;;;;;11.03;7.00;;;;;;;37.23;17.64;160999.06;1698348;81;21758;-84
2021/03/28 13:29:02;;;;;;;10.05;6.62;;;;;;;37.21;17.82;160992.37;1700734;81;21239;-83